Time;durP1;ratioP1;P1;durP2;ratioP2;P2;SDS_P1;SDS_P2;PMS_P1;PMS_P2;Temp;Humidity;BMP_temperature;BMP_pressure;BME280_temperature;BME280_humidity;BME280_pressure;Samples;Min_cycle;Max_cycle;Signal;HPM_P1;HPM_P2
2023/07/11 00:01:43;;;;;;;;;;;18.30;99.90;;;;;;5126856;27;20219;-43
2023/07/11 00:04:08;;;;;;;;;;;18.20;99.90;;;;;;5112691;28;20006;-44
2023/07/11 00:06:34;;;;;;;;;;;18.30;99.90;;;;;;5121767;27;20255;-43
2023/07/11 00:08:59;;;;;;;;;;;18.30;99.90;;;;;;5120605;27;19907;-44
2023/07/11 00:11:25;;;;;;;;;;;18.30;99.90;;;;;;5133005;27;19914;-44
2023/07/11 00:13:50;;;;;;;;;;;18.30;99.90;;;;;;5133065;27;19914;-45
2023/07/11 00:16:17;;;;;;;;;;;18.30;99.90;;;;;;5133959;27;19908;-43
2023/07/11 00:18:43;;;;;;;;;;;18.30;99.90;;;;;;5133005;27;19911;-44
2023/07/11 00:21:08;;;;;;;;;;;18.30;99.90;;;;;;5133863;27;20006;-44
2023/07/11 00:23:34;;;;;;;;;;;18.30;99.90;;;;;;5133651;27;19959;-44
2023/07/11 00:25:59;;;;;;;;;;;18.30;99.90;;;;;;5133018;28;19995;-43
2023/07/11 00:28:25;;;;;;;;;;;18.40;99.90;;;;;;5148488;27;19911;-43
2023/07/11 00:30:51;;;;;;;;;;;18.30;99.90;;;;;;5154309;27;20012;-43
2023/07/11 00:33:16;;;;;;;;;;;18.30;99.90;;;;;;5154108;27;19915;-43
2023/07/11 00:35:46;;;;;;;;;;;18.30;99.90;;;;;;5154269;27;19994;-43
2023/07/11 00:38:12;;;;;;;;;;;18.40;99.90;;;;;;5154263;27;20357;-43
2023/07/11 00:40:42;;;;;;;;;;;18.40;99.90;;;;;;5153292;27;20147;-43
2023/07/11 00:43:12;;;;;;;;;;;18.40;99.90;;;;;;5154356;27;20002;-43
2023/07/11 00:45:58;;;;;;;;;;;18.50;99.90;;;;;;5154213;27;19915;-43
2023/07/11 00:48:23;;;;;;;;;;;18.50;99.90;;;;;;5154481;27;19907;-43
2023/07/11 00:50:49;;;;;;;;;;;18.50;99.90;;;;;;5154162;27;20247;-43
2023/07/11 00:53:15;;;;;;;;;;;18.50;99.90;;;;;;5153551;27;19907;-43
2023/07/11 00:55:41;;;;;;;;;;;18.60;99.90;;;;;;5133462;27;19972;-43
2023/07/11 00:58:07;;;;;;;;;;;18.60;99.90;;;;;;5133457;27;19998;-43
2023/07/11 01:00:33;;;;;;;;;;;18.60;99.90;;;;;;5132537;27;20011;-43
2023/07/11 01:02:58;;;;;;;;;;;18.60;99.90;;;;;;5133427;28;19957;-43
2023/07/11 01:05:24;;;;;;;;;;;18.60;99.90;;;;;;5136923;27;19915;-44
2023/07/11 01:07:50;;;;;;;;;;;18.60;99.90;;;;;;5153072;27;19915;-43
2023/07/11 01:10:16;;;;;;;;;;;18.50;99.90;;;;;;5154144;27;20380;-42
2023/07/11 01:12:45;;;;;;;;;;;18.50;99.90;;;;;;5153979;27;20383;-43
2023/07/11 01:15:11;;;;;;;;;;;18.60;99.90;;;;;;5153202;27;19907;-42
2023/07/11 01:17:37;;;;;;;;;;;18.60;99.90;;;;;;5148723;27;19919;-43
2023/07/11 01:20:04;;;;;;;;;;;18.60;99.90;;;;;;5133458;28;19950;-43
2023/07/11 01:22:30;;;;;;;;;;;18.50;99.90;;;;;;5132436;28;19960;-43
2023/07/11 01:24:57;;;;;;;;;;;18.50;99.90;;;;;;5134162;27;19915;-43
2023/07/11 01:27:22;;;;;;;;;;;18.50;99.90;;;;;;5136969;27;19907;-43
2023/07/11 01:29:49;;;;;;;;;;;18.50;99.90;;;;;;5136164;27;19908;-43
2023/07/11 01:32:15;;;;;;;;;;;18.40;99.90;;;;;;5136939;27;19907;-43
2023/07/11 01:34:41;;;;;;;;;;;18.40;99.90;;;;;;5136807;27;20033;-43
2023/07/11 01:37:07;;;;;;;;;;;18.40;99.90;;;;;;5136093;27;19914;-43
2023/07/11 01:39:33;;;;;;;;;;;18.50;99.90;;;;;;5136480;27;19926;-44
2023/07/11 01:41:58;;;;;;;;;;;18.40;99.90;;;;;;5136969;27;20000;-43
2023/07/11 01:44:24;;;;;;;;;;;18.40;99.90;;;;;;5135785;27;19915;-43
2023/07/11 01:46:50;;;;;;;;;;;18.30;99.90;;;;;;5136708;27;19914;-43
2023/07/11 01:49:15;;;;;;;;;;;18.30;99.90;;;;;;5135608;27;19964;-43
2023/07/11 01:51:43;;;;;;;;;;;18.30;99.90;;;;;;5136481;27;19917;-43
2023/07/11 01:54:09;;;;;;;;;;;18.20;99.90;;;;;;5136524;27;19956;-43
2023/07/11 01:56:34;;;;;;;;;;;18.20;99.90;;;;;;5135645;27;20302;-43
2023/07/11 01:59:00;;;;;;;;;;;18.20;99.90;;;;;;5136402;27;19930;-43
2023/07/11 02:01:25;;;;;;;;;;;18.30;99.90;;;;;;5126211;27;19911;-43
2023/07/11 02:03:51;;;;;;;;;;;18.20;99.90;;;;;;5135306;27;19915;-43
2023/07/11 02:06:16;;;;;;;;;;;18.20;99.90;;;;;;5136332;27;19907;-43
2023/07/11 02:08:42;;;;;;;;;;;18.20;99.90;;;;;;5136134;27;19908;-44
2023/07/11 02:11:07;;;;;;;;;;;18.20;99.90;;;;;;5131037;27;19914;-43
2023/07/11 02:13:33;;;;;;;;;;;18.20;99.90;;;;;;5115337;28;20384;-44
2023/07/11 02:15:58;;;;;;;;;;;18.20;99.90;;;;;;5115392;28;19919;-43
2023/07/11 02:18:24;;;;;;;;;;;18.20;99.90;;;;;;5133089;27;19911;-44
2023/07/11 02:20:49;;;;;;;;;;;18.20;99.90;;;;;;5135152;27;20006;-43
2023/07/11 02:23:15;;;;;;;;;;;18.20;99.90;;;;;;5135875;27;20006;-43
2023/07/11 02:25:41;;;;;;;;;;;18.20;99.90;;;;;;5133774;27;19919;-43
2023/07/11 02:28:06;;;;;;;;;;;18.20;99.90;;;;;;5135152;27;19908;-43
2023/07/11 02:30:33;;;;;;;;;;;18.20;99.90;;;;;;5135815;27;19908;-44
2023/07/11 02:32:58;;;;;;;;;;;18.20;99.90;;;;;;5123637;27;20446;-44
2023/07/11 02:35:24;;;;;;;;;;;18.20;99.90;;;;;;5115143;28;19947;-43
2023/07/11 02:37:50;;;;;;;;;;;18.20;99.90;;;;;;5114143;28;19907;-44
2023/07/11 02:40:15;;;;;;;;;;;18.20;99.90;;;;;;5114108;28;19926;-43
2023/07/11 02:42:41;;;;;;;;;;;18.20;99.90;;;;;;5114921;28;19919;-43
2023/07/11 02:45:06;;;;;;;;;;;18.20;99.90;;;;;;5114961;28;19923;-45
2023/07/11 02:47:32;;;;;;;;;;;18.20;99.90;;;;;;5117034;27;19907;-43
2023/07/11 02:49:57;;;;;;;;;;;18.20;99.90;;;;;;5135410;27;19907;-43
2023/07/11 02:52:23;;;;;;;;;;;18.20;99.90;;;;;;5135366;27;19999;-42
2023/07/11 02:54:49;;;;;;;;;;;18.20;99.90;;;;;;5134446;27;20383;-44
2023/07/11 02:57:14;;;;;;;;;;;18.20;99.90;;;;;;5135376;27;19914;-43
2023/07/11 02:59:40;;;;;;;;;;;18.20;99.90;;;;;;5122306;27;19969;-43
2023/07/11 03:02:06;;;;;;;;;;;18.20;99.90;;;;;;5114559;28;20461;-46
2023/07/11 03:04:32;;;;;;;;;;;18.20;99.90;;;;;;5114460;28;19923;-43
2023/07/11 03:06:58;;;;;;;;;;;18.20;99.90;;;;;;5113763;28;19912;-45
2023/07/11 03:09:24;;;;;;;;;;;18.20;99.90;;;;;;5114523;28;19930;-43
2023/07/11 03:11:50;;;;;;;;;;;18.20;99.90;;;;;;5114741;28;19921;-42
2023/07/11 03:14:15;;;;;;;;;;;18.20;99.90;;;;;;5113563;28;19933;-43
2023/07/11 03:16:42;;;;;;;;;;;18.20;99.90;;;;;;5114212;28;19958;-44
2023/07/11 03:19:08;;;;;;;;;;;18.10;99.90;;;;;;5145754;27;19918;-43
2023/07/11 03:21:33;;;;;;;;;;;18.10;99.90;;;;;;5154644;27;19907;-43
2023/07/11 03:23:59;;;;;;;;;;;18.00;99.90;;;;;;5155460;27;19926;-44
2023/07/11 03:26:24;;;;;;;;;;;18.00;99.90;;;;;;5144601;27;20281;-43
2023/07/11 03:28:49;;;;;;;;;;;18.00;99.90;;;;;;5133758;27;19915;-43
2023/07/11 03:31:16;;;;;;;;;;;18.00;99.90;;;;;;5133491;27;19914;-43
2023/07/11 03:33:42;;;;;;;;;;;18.00;99.90;;;;;;5133795;27;19915;-43
2023/07/11 03:36:07;;;;;;;;;;;18.00;99.90;;;;;;5113060;27;19908;-43
2023/07/11 03:38:33;;;;;;;;;;;18.00;99.90;;;;;;5125401;27;19920;-43
2023/07/11 03:40:58;;;;;;;;;;;18.00;99.90;;;;;;5132685;27;19924;-43
2023/07/11 03:43:24;;;;;;;;;;;18.00;99.90;;;;;;5119750;27;19943;-43
2023/07/11 03:45:49;;;;;;;;;;;18.00;99.90;;;;;;5113725;28;19966;-43
2023/07/11 03:48:15;;;;;;;;;;;18.00;99.90;;;;;;5113536;28;19907;-44
2023/07/11 03:50:41;;;;;;;;;;;18.00;99.90;;;;;;5112843;28;19912;-43
2023/07/11 03:53:07;;;;;;;;;;;18.00;99.90;;;;;;5113740;28;19947;-44
2023/07/11 03:55:32;;;;;;;;;;;18.00;99.90;;;;;;5113589;28;20400;-43
2023/07/11 03:57:58;;;;;;;;;;;18.00;99.90;;;;;;5122833;27;20289;-43
2023/07/11 04:00:23;;;;;;;;;;;18.10;99.90;;;;;;5134052;27;19994;-44
2023/07/11 04:02:49;;;;;;;;;;;18.10;99.90;;;;;;5133754;27;20278;-43
2023/07/11 04:05:15;;;;;;;;;;;18.10;99.90;;;;;;5133411;27;20006;-43
2023/07/11 04:07:40;;;;;;;;;;;18.10;99.90;;;;;;5134166;27;19919;-43
2023/07/11 04:10:07;;;;;;;;;;;18.10;99.90;;;;;;5133271;27;19908;-43
2023/07/11 04:12:33;;;;;;;;;;;18.10;99.90;;;;;;5133857;27;19945;-43
2023/07/11 04:14:59;;;;;;;;;;;18.10;99.90;;;;;;5133783;27;19911;-43
2023/07/11 04:17:25;;;;;;;;;;;18.20;99.90;;;;;;5139590;27;19911;-43
2023/07/11 04:19:51;;;;;;;;;;;18.20;99.90;;;;;;5143475;27;19918;-43
2023/07/11 04:22:17;;;;;;;;;;;18.20;99.90;;;;;;5133797;27;19912;-44
2023/07/11 04:24:42;;;;;;;;;;;18.20;99.90;;;;;;5132955;27;19916;-44
2023/07/11 04:27:08;;;;;;;;;;;18.20;99.90;;;;;;5127995;28;19914;-43
2023/07/11 04:29:33;;;;;;;;;;;18.20;99.90;;;;;;5113191;28;19943;-43
2023/07/11 04:31:59;;;;;;;;;;;18.30;99.90;;;;;;5112434;28;19912;-43
2023/07/11 04:34:24;;;;;;;;;;;18.30;99.90;;;;;;5113185;28;19962;-43
2023/07/11 04:36:50;;;;;;;;;;;18.30;99.90;;;;;;5113087;28;19939;-43
2023/07/11 04:39:15;;;;;;;;;;;18.30;99.90;;;;;;5112119;28;20404;-43
2023/07/11 04:41:41;;;;;;;;;;;18.30;99.90;;;;;;5111776;28;19919;-43
2023/07/11 04:44:06;;;;;;;;;;;18.30;99.90;;;;;;5112906;28;19915;-44
2023/07/11 04:46:32;;;;;;;;;;;18.40;99.90;;;;;;5130305;28;19915;-44
2023/07/11 04:48:57;;;;;;;;;;;18.40;99.90;;;;;;5145388;27;20004;-43
2023/07/11 04:51:23;;;;;;;;;;;18.40;99.90;;;;;;5132630;28;19968;-43
2023/07/11 04:53:48;;;;;;;;;;;18.40;99.90;;;;;;5132846;28;19947;-45
2023/07/11 04:56:14;;;;;;;;;;;18.50;99.90;;;;;;5133471;28;19908;-44
2023/07/11 04:58:39;;;;;;;;;;;18.40;99.90;;;;;;5122654;28;19922;-43
2023/07/11 05:01:07;;;;;;;;;;;18.50;99.90;;;;;;5119626;27;20277;-43
2023/07/11 05:03:32;;;;;;;;;;;18.50;99.90;;;;;;5132206;27;19926;-43
2023/07/11 05:05:58;;;;;;;;;;;18.50;99.90;;;;;;5137478;27;19907;-43
2023/07/11 05:08:24;;;;;;;;;;;18.50;99.90;;;;;;5136608;27;20270;-43
2023/07/11 05:10:52;;;;;;;;;;;18.50;99.90;;;;;;5137364;27;20318;-43
2023/07/11 05:13:18;;;;;;;;;;;18.40;99.90;;;;;;5136449;27;19911;-43
2023/07/11 05:15:43;;;;;;;;;;;18.50;99.90;;;;;;5137320;27;20406;-43
2023/07/11 05:18:09;;;;;;;;;;;18.50;99.90;;;;;;5137284;27;20421;-43
2023/07/11 05:20:35;;;;;;;;;;;18.60;99.90;;;;;;5129302;27;19916;-44
2023/07/11 05:23:00;;;;;;;;;;;18.60;99.90;;;;;;5118597;27;20377;-43
2023/07/11 05:25:26;;;;;;;;;;;18.60;99.90;;;;;;5124783;27;19966;-43
2023/07/11 05:27:51;;;;;;;;;;;18.70;99.90;;;;;;5125424;27;19911;-43
2023/07/11 05:30:17;;;;;;;;;;;18.70;99.90;;;;;;5136644;27;20366;-43
2023/07/11 05:32:42;;;;;;;;;;;18.80;99.90;;;;;;5136696;27;19912;-43
2023/07/11 05:35:08;;;;;;;;;;;18.80;99.90;;;;;;5136049;27;19953;-43
2023/07/11 05:37:33;;;;;;;;;;;18.80;99.90;;;;;;5134398;27;20424;-43
2023/07/11 05:39:59;;;;;;;;;;;18.90;99.90;;;;;;5136498;27;19923;-43
2023/07/11 05:42:24;;;;;;;;;;;18.90;99.90;;;;;;5136063;27;19914;-43
2023/07/11 05:44:50;;;;;;;;;;;19.00;99.90;;;;;;5126462;27;20011;-43
2023/07/11 05:47:15;;;;;;;;;;;19.00;99.90;;;;;;5123922;27;20414;-43
2023/07/11 05:49:41;;;;;;;;;;;19.10;99.90;;;;;;5139730;27;19968;-44
2023/07/11 05:52:06;;;;;;;;;;;19.10;99.90;;;;;;5136617;27;19945;-43
2023/07/11 05:54:32;;;;;;;;;;;19.20;99.90;;;;;;5139955;27;19930;-43
2023/07/11 05:56:57;;;;;;;;;;;19.20;99.90;;;;;;5135664;27;19907;-42
2023/07/11 05:59:23;;;;;;;;;;;19.20;99.90;;;;;;5136278;27;20318;-43
2023/07/11 06:01:48;;;;;;;;;;;19.30;99.90;;;;;;5136284;27;19907;-42
2023/07/11 06:04:15;;;;;;;;;;;19.30;99.90;;;;;;5134856;27;20381;-43
2023/07/11 06:06:43;;;;;;;;;;;19.40;99.90;;;;;;5135587;27;19959;-43
2023/07/11 06:09:13;;;;;;;;;;;19.40;99.90;;;;;;5136276;27;19979;-44
2023/07/11 06:11:39;;;;;;;;;;;19.40;99.90;;;;;;5135257;27;19907;-43
2023/07/11 06:14:05;;;;;;;;;;;19.50;99.90;;;;;;5136206;27;19930;-43
2023/07/11 06:16:31;;;;;;;;;;;19.60;99.90;;;;;;5135717;27;19994;-43
2023/07/11 06:18:57;;;;;;;;;;;19.60;99.90;;;;;;5136182;27;19961;-42
2023/07/11 06:21:22;;;;;;;;;;;19.70;99.90;;;;;;5135614;27;20326;-42
2023/07/11 06:23:48;;;;;;;;;;;19.80;99.90;;;;;;5134769;27;20010;-43
2023/07/11 06:26:13;;;;;;;;;;;19.90;99.90;;;;;;5129463;27;19920;-43
2023/07/11 06:28:39;;;;;;;;;;;20.00;99.90;;;;;;5123979;27;19916;-43
2023/07/11 06:31:05;;;;;;;;;;;20.10;99.90;;;;;;5122572;27;20002;-43
2023/07/11 06:33:30;;;;;;;;;;;20.20;99.90;;;;;;5136689;27;19953;-43
2023/07/11 06:35:57;;;;;;;;;;;20.30;99.90;;;;;;5122959;27;19918;-42
2023/07/11 06:38:22;;;;;;;;;;;20.40;99.90;;;;;;5134741;27;19907;-42
2023/07/11 06:40:48;;;;;;;;;;;20.50;99.90;;;;;;5135211;27;19926;-42
2023/07/11 06:43:14;;;;;;;;;;;20.60;99.90;;;;;;5130370;27;20311;-42
2023/07/11 06:45:40;;;;;;;;;;;20.60;99.90;;;;;;5138322;27;19965;-43
2023/07/11 06:48:05;;;;;;;;;;;20.70;99.90;;;;;;5143235;27;19956;-43
2023/07/11 06:50:31;;;;;;;;;;;20.80;99.90;;;;;;5144272;27;19956;-43
2023/07/11 06:52:56;;;;;;;;;;;20.80;99.90;;;;;;5143389;27;20436;-42
2023/07/11 06:55:22;;;;;;;;;;;20.80;99.90;;;;;;5143679;27;19963;-44
2023/07/11 06:57:47;;;;;;;;;;;20.90;99.90;;;;;;5146800;27;20001;-43
2023/07/11 07:00:13;;;;;;;;;;;20.90;99.90;;;;;;5139520;27;20365;-42
2023/07/11 07:02:40;;;;;;;;;;;21.00;99.90;;;;;;5142181;27;19922;-42
2023/07/11 07:05:05;;;;;;;;;;;21.10;99.90;;;;;;5135173;27;20011;-43
2023/07/11 07:07:31;;;;;;;;;;;21.10;99.90;;;;;;5134265;27;20365;-43
2023/07/11 07:09:57;;;;;;;;;;;21.20;99.90;;;;;;5134575;27;19990;-43
2023/07/11 07:12:23;;;;;;;;;;;21.20;99.90;;;;;;5126975;27;19964;-43
2023/07/11 07:14:49;;;;;;;;;;;21.30;99.90;;;;;;5127476;27;19919;-43
2023/07/11 07:17:14;;;;;;;;;;;21.40;99.90;;;;;;5122371;27;19912;-44
2023/07/11 07:19:40;;;;;;;;;;;21.40;99.90;;;;;;5127605;27;19912;-43
2023/07/11 07:22:05;;;;;;;;;;;21.40;99.90;;;;;;5134921;27;19907;-43
2023/07/11 07:24:31;;;;;;;;;;;21.50;99.90;;;;;;5134501;27;20377;-42
2023/07/11 07:26:56;;;;;;;;;;;21.50;99.90;;;;;;5134082;27;19913;-44
2023/07/11 07:29:23;;;;;;;;;;;21.60;99.90;;;;;;5134608;27;20377;-43
2023/07/11 07:31:48;;;;;;;;;;;21.60;99.90;;;;;;5134652;27;19961;-43
2023/07/11 07:34:14;;;;;;;;;;;21.70;99.90;;;;;;5133864;27;19915;-44
2023/07/11 07:36:40;;;;;;;;;;;21.90;99.90;;;;;;5134608;27;19912;-44
2023/07/11 07:39:05;;;;;;;;;;;22.00;99.90;;;;;;5134190;27;19943;-42
2023/07/11 07:41:31;;;;;;;;;;;22.00;99.90;;;;;;5133568;27;19914;-43
2023/07/11 07:43:56;;;;;;;;;;;22.20;99.90;;;;;;5144645;27;19919;-44
2023/07/11 07:46:22;;;;;;;;;;;22.30;99.90;;;;;;5155083;27;19907;-44
2023/07/11 07:48:48;;;;;;;;;;;22.40;99.90;;;;;;5154300;27;19907;-43
2023/07/11 07:51:15;;;;;;;;;;;22.40;99.90;;;;;;5154610;27;19911;-43
2023/07/11 07:53:41;;;;;;;;;;;22.60;99.90;;;;;;5154854;27;19915;-44
2023/07/11 07:56:06;;;;;;;;;;;22.60;99.90;;;;;;5154151;27;19907;-42
2023/07/11 07:58:32;;;;;;;;;;;22.80;99.90;;;;;;5154799;27;19915;-44
2023/07/11 08:00:58;;;;;;;;;;;22.90;99.90;;;;;;5154861;27;20390;-43
2023/07/11 08:03:23;;;;;;;;;;;23.00;99.90;;;;;;5153808;27;19911;-42
2023/07/11 08:05:48;;;;;;;;;;;23.00;99.90;;;;;;5154719;27;19907;-44
2023/07/11 08:08:14;;;;;;;;;;;23.10;99.90;;;;;;5154652;27;19907;-42
2023/07/11 08:10:39;;;;;;;;;;;23.10;99.90;;;;;;5153797;27;19960;-42
2023/07/11 08:13:05;;;;;;;;;;;23.20;99.90;;;;;;5150993;27;19998;-43
2023/07/11 08:15:30;;;;;;;;;;;23.30;99.90;;;;;;5153004;27;19919;-44
2023/07/11 08:17:56;;;;;;;;;;;23.50;99.90;;;;;;5153807;27;19915;-42
2023/07/11 08:20:21;;;;;;;;;;;23.50;99.90;;;;;;5154462;27;19950;-43
2023/07/11 08:22:47;;;;;;;;;;;23.60;99.90;;;;;;5154497;27;19907;-42
2023/07/11 08:25:14;;;;;;;;;;;23.70;99.90;;;;;;5153564;27;19915;-43
2023/07/11 08:27:40;;;;;;;;;;;23.70;99.90;;;;;;5154500;27;20334;-42
2023/07/11 08:30:05;;;;;;;;;;;23.90;99.90;;;;;;5154524;27;19911;-43
2023/07/11 08:32:31;;;;;;;;;;;24.00;99.90;;;;;;5152833;27;20436;-43
2023/07/11 08:34:56;;;;;;;;;;;24.20;99.90;;;;;;5134731;27;19915;-42
2023/07/11 08:37:22;;;;;;;;;;;24.30;99.90;;;;;;5137103;27;19915;-43
2023/07/11 08:39:48;;;;;;;;;;;24.40;99.90;;;;;;5137900;27;20374;-42
2023/07/11 08:42:30;;;;;;;;;;;24.50;99.90;;;;;;5137989;27;20377;-43
2023/07/11 08:45:09;;;;;;;;;;;24.50;99.90;;;;;;5137079;27;19919;-42
2023/07/11 08:47:38;;;;;;;;;;;24.60;99.90;;;;;;5137809;27;19915;-42
2023/07/11 08:50:26;;;;;;;;;;;24.80;99.90;;;;;;5137798;27;19914;-43
2023/07/11 08:53:05;;;;;;;;;;;24.80;99.90;;;;;;5141434;27;20457;-42
2023/07/11 08:55:33;;;;;;;;;;;24.80;99.90;;;;;;5158020;27;19910;-44
2023/07/11 08:58:10;;;;;;;;;;;24.80;99.90;;;;;;5158466;27;19908;-43
2023/07/11 09:00:36;;;;;;;;;;;24.80;99.90;;;;;;5157474;27;19998;-42
2023/07/11 09:03:09;;;;;;;;;;;24.80;99.90;;;;;;5138960;27;20023;-43
2023/07/11 09:05:39;;;;;;;;;;;24.90;99.90;;;;;;5136834;27;19919;-42
2023/07/11 09:08:04;;;;;;;;;;;24.90;99.90;;;;;;5137546;27;20007;-43
2023/07/11 09:10:46;;;;;;;;;;;25.00;99.90;;;;;;5137351;27;20321;-43
2023/07/11 09:13:19;;;;;;;;;;;25.10;99.90;;;;;;5146256;27;19934;-42
2023/07/11 09:15:50;;;;;;;;;;;25.30;99.90;;;;;;5144116;27;20274;-43
2023/07/11 09:18:24;;;;;;;;;;;25.40;99.90;;;;;;5137294;27;19912;-42
2023/07/11 09:20:49;;;;;;;;;;;25.30;99.90;;;;;;5136626;27;19914;-44
2023/07/11 09:23:22;;;;;;;;;;;25.40;99.90;;;;;;5137028;27;19907;-42
2023/07/11 09:25:49;;;;;;;;;;;25.50;99.90;;;;;;5137157;27;20076;-44
2023/07/11 09:28:14;;;;;;;;;;;25.60;99.90;;;;;;5136234;27;19915;-43
2023/07/11 09:30:43;;;;;;;;;;;25.70;99.90;;;;;;5136980;27;19912;-42
2023/07/11 09:33:15;;;;;;;;;;;25.70;99.90;;;;;;5136942;27;19968;-42
2023/07/11 09:35:42;;;;;;;;;;;25.80;99.90;;;;;;5135900;27;20280;-43
2023/07/11 09:38:23;;;;;;;;;;;25.90;99.90;;;;;;5136874;27;19950;-43
2023/07/11 09:40:53;;;;;;;;;;;26.00;99.90;;;;;;5135793;27;20459;-44
2023/07/11 09:43:18;;;;;;;;;;;26.10;99.90;;;;;;5147113;27;19911;-43
2023/07/11 09:45:47;;;;;;;;;;;26.20;99.90;;;;;;5156918;27;19914;-43
2023/07/11 09:48:15;;;;;;;;;;;26.40;99.90;;;;;;5156537;27;19952;-42
2023/07/11 09:50:59;;;;;;;;;;;26.40;99.90;;;;;;5157304;27;19907;-44
2023/07/11 09:53:26;;;;;;;;;;;26.50;99.90;;;;;;5149255;27;19990;-42
2023/07/11 09:55:52;;;;;;;;;;;26.60;99.90;;;;;;5133877;27;20442;-43
2023/07/11 09:58:18;;;;;;;;;;;26.80;99.90;;;;;;5122672;27;19911;-43
2023/07/11 10:00:47;;;;;;;;;;;26.90;99.90;;;;;;5124207;27;19911;-43
2023/07/11 10:03:21;;;;;;;;;;;27.00;99.90;;;;;;5133917;27;19908;-43
2023/07/11 10:05:48;;;;;;;;;;;27.10;99.90;;;;;;5136039;27;19937;-44
2023/07/11 10:08:18;;;;;;;;;;;27.10;99.10;;;;;;5134659;27;19939;-43
2023/07/11 10:10:50;;;;;;;;;;;27.20;96.30;;;;;;5121690;27;19968;-43
2023/07/11 10:13:16;;;;;;;;;;;27.20;97.00;;;;;;5134451;27;20340;-45
2023/07/11 10:15:42;;;;;;;;;;;27.10;97.00;;;;;;5132726;27;19918;-45
2023/07/11 10:18:18;;;;;;;;;;;27.10;96.40;;;;;;5125171;27;20378;-42
2023/07/11 10:20:45;;;;;;;;;;;27.10;91.80;;;;;;5115268;27;19923;-44
2023/07/11 10:23:11;;;;;;;;;;;27.10;94.90;;;;;;5120809;27;20350;-42
2023/07/11 10:25:37;;;;;;;;;;;27.30;93.60;;;;;;5132305;27;19923;-42
2023/07/11 10:28:04;;;;;;;;;;;27.30;87.70;;;;;;5133588;27;20284;-43
2023/07/11 10:30:33;;;;;;;;;;;27.30;89.70;;;;;;5133685;27;20358;-42
2023/07/11 10:33:10;;;;;;;;;;;27.40;87.70;;;;;;5122235;27;19907;-43
2023/07/11 10:35:36;;;;;;;;;;;27.40;91.00;;;;;;5134963;27;19911;-42
2023/07/11 10:38:04;;;;;;;;;;;27.50;85.80;;;;;;5140433;27;19954;-42
2023/07/11 10:40:41;;;;;;;;;;;27.60;91.10;;;;;;5133499;27;19931;-42
2023/07/11 10:43:09;;;;;;;;;;;27.70;90.30;;;;;;5137032;27;19939;-42
2023/07/11 10:45:36;;;;;;;;;;;27.70;92.40;;;;;;5138714;27;19959;-41
2023/07/11 10:48:06;;;;;;;;;;;27.60;90.00;;;;;;5141343;27;19956;-43
2023/07/11 10:50:43;;;;;;;;;;;27.60;91.10;;;;;;5135676;27;20006;-43
2023/07/11 10:53:16;;;;;;;;;;;27.60;91.90;;;;;;5133950;27;19960;-44
2023/07/11 10:55:46;;;;;;;;;;;27.60;91.70;;;;;;5134118;27;19926;-43
2023/07/11 10:58:12;;;;;;;;;;;27.60;92.90;;;;;;5132985;27;19931;-42
2023/07/11 11:00:46;;;;;;;;;;;27.70;91.40;;;;;;5134069;27;19911;-43
2023/07/11 11:03:32;;;;;;;;;;;27.80;94.20;;;;;;5131295;27;20010;-43
2023/07/11 11:06:05;;;;;;;;;;;27.80;90.90;;;;;;5105895;27;19911;-43
2023/07/11 11:08:38;;;;;;;;;;;28.00;94.80;;;;;;5113229;28;19912;-44
2023/07/11 11:11:07;;;;;;;;;;;28.00;92.30;;;;;;5126771;27;19918;-43
2023/07/11 11:13:42;;;;;;;;;;;28.00;90.40;;;;;;5133207;27;19907;-43
2023/07/11 11:16:22;;;;;;;;;;;28.00;91.30;;;;;;5134519;27;19916;-42
2023/07/11 11:18:57;;;;;;;;;;;28.00;93.10;;;;;;5133558;27;19915;-43
2023/07/11 11:21:28;;;;;;;;;;;28.10;93.60;;;;;;5133673;27;19918;-42
2023/07/11 11:24:01;;;;;;;;;;;28.20;90.90;;;;;;5134127;27;19916;-42
2023/07/11 11:26:26;;;;;;;;;;;28.10;91.30;;;;;;5132189;27;20330;-43
2023/07/11 11:29:16;;;;;;;;;;;28.10;91.40;;;;;;5133396;27;19951;-42
2023/07/11 11:31:54;;;;;;;;;;;28.10;91.90;;;;;;5128338;27;19923;-42
2023/07/11 11:34:22;;;;;;;;;;;28.20;93.50;;;;;;5129593;27;19947;-42
2023/07/11 11:37:23;;;;;;;;;;;28.30;93.70;;;;;;5129274;27;19912;-42
2023/07/11 11:39:55;;;;;;;;;;;28.40;94.30;;;;;;5048446;28;20347;-44
2023/07/11 11:42:23;;;;;;;;;;;28.40;91.80;;;;;;5111719;27;20463;-42
2023/07/11 11:45:00;;;;;;;;;;;28.40;91.80;;;;;;5132640;27;19931;-42
2023/07/11 11:47:28;;;;;;;;;;;28.40;92.00;;;;;;5123518;27;20226;-44
2023/07/11 11:49:54;;;;;;;;;;;28.30;91.60;;;;;;5128510;27;20243;-43
2023/07/11 11:52:21;;;;;;;;;;;28.30;91.70;;;;;;5124098;27;19911;-42
2023/07/11 11:54:47;;;;;;;;;;;28.40;93.70;;;;;;5116798;27;20067;-43
2023/07/11 11:57:22;;;;;;;;;;;28.60;92.20;;;;;;5133450;27;19934;-42
2023/07/11 11:59:47;;;;;;;;;;;28.60;90.90;;;;;;5133730;27;20517;-45
2023/07/11 12:02:16;;;;;;;;;;;28.60;91.90;;;;;;5131651;27;19911;-42
2023/07/11 12:05:08;;;;;;;;;;;28.70;91.90;;;;;;5118430;27;19919;-43
2023/07/11 12:07:37;;;;;;;;;;;28.70;90.60;;;;;;5095825;27;19958;-42
2023/07/11 12:10:04;;;;;;;;;;;28.70;90.30;;;;;;5123695;27;19988;-43
2023/07/11 12:12:32;;;;;;;;;;;28.80;86.90;;;;;;5113895;28;19908;-43
2023/07/11 12:14:59;;;;;;;;;;;28.90;89.40;;;;;;5114083;28;19953;-42
2023/07/11 12:17:27;;;;;;;;;;;28.70;87.90;;;;;;5121158;27;19954;-43
2023/07/11 12:20:12;;;;;;;;;;;28.70;89.70;;;;;;5134516;27;19911;-42
2023/07/11 12:22:38;;;;;;;;;;;28.70;84.50;;;;;;5131435;27;19958;-43
2023/07/11 12:25:06;;;;;;;;;;;28.80;91.50;;;;;;5135237;27;20345;-43
2023/07/11 12:27:32;;;;;;;;;;;28.90;89.30;;;;;;5134329;27;20338;-43
2023/07/11 12:29:59;;;;;;;;;;;28.90;83.30;;;;;;5133977;27;19908;-43
2023/07/11 12:32:29;;;;;;;;;;;28.90;91.90;;;;;;5134293;27;19938;-42
2023/07/11 12:34:56;;;;;;;;;;;29.10;89.50;;;;;;5134239;28;19908;-43
2023/07/11 12:37:24;;;;;;;;;;;29.30;88.40;;;;;;5133825;28;20349;-43
2023/07/11 12:40:00;;;;;;;;;;;29.40;87.70;;;;;;5133990;28;20456;-42
2023/07/11 12:42:37;;;;;;;;;;;29.40;86.20;;;;;;5134450;28;19973;-44
2023/07/11 12:45:11;;;;;;;;;;;29.60;86.80;;;;;;5138645;27;20006;-41
2023/07/11 12:47:38;;;;;;;;;;;29.80;89.60;;;;;;5144366;27;19915;-44
2023/07/11 12:50:04;;;;;;;;;;;29.90;89.60;;;;;;5143119;27;20010;-44
2023/07/11 12:52:30;;;;;;;;;;;30.00;85.50;;;;;;5142091;27;19907;-45
2023/07/11 12:54:56;;;;;;;;;;;30.10;86.80;;;;;;5144386;27;19907;-43
2023/07/11 12:57:26;;;;;;;;;;;30.30;79.30;;;;;;5144312;27;19919;-42
2023/07/11 12:59:51;;;;;;;;;;;30.10;74.70;;;;;;5133406;27;19907;-42
2023/07/11 13:02:24;;;;;;;;;;;29.90;79.30;;;;;;5144776;27;20269;-42
2023/07/11 13:04:53;;;;;;;;;;;29.60;81.00;;;;;;5140047;27;19944;-42
2023/07/11 13:07:21;;;;;;;;;;;29.50;79.70;;;;;;5139815;27;19998;-42
2023/07/11 13:09:47;;;;;;;;;;;29.50;83.80;;;;;;5137286;27;19914;-42
2023/07/11 13:12:22;;;;;;;;;;;29.60;80.30;;;;;;5141249;27;19916;-41
2023/07/11 13:14:48;;;;;;;;;;;29.70;81.20;;;;;;5134043;28;19915;-41
2023/07/11 13:17:14;;;;;;;;;;;29.80;80.00;;;;;;5143828;27;19930;-42
2023/07/11 13:19:40;;;;;;;;;;;29.80;87.20;;;;;;5136101;27;19940;-42
2023/07/11 13:22:09;;;;;;;;;;;29.90;84.40;;;;;;5140549;27;19907;-42
2023/07/11 13:24:34;;;;;;;;;;;29.70;87.20;;;;;;5151500;27;19985;-42
2023/07/11 13:27:03;;;;;;;;;;;29.50;83.00;;;;;;5151532;27;20052;-42
2023/07/11 13:29:34;;;;;;;;;;;29.40;85.50;;;;;;5144846;27;20265;-43
2023/07/11 13:32:01;;;;;;;;;;;29.40;85.70;;;;;;5145888;27;19994;-42
2023/07/11 13:34:27;;;;;;;;;;;29.40;80.80;;;;;;5150814;27;19907;-42
2023/07/11 13:36:54;;;;;;;;;;;29.20;86.70;;;;;;5149120;27;19937;-42
2023/07/11 13:39:25;;;;;;;;;;;29.00;83.20;;;;;;5125455;27;19919;-43
2023/07/11 13:41:52;;;;;;;;;;;28.90;86.70;;;;;;5122201;27;19916;-43
2023/07/11 13:44:24;;;;;;;;;;;28.80;85.90;;;;;;5127636;27;20342;-42
2023/07/11 13:46:50;;;;;;;;;;;28.70;88.70;;;;;;5124748;27;20514;-42
2023/07/11 13:49:20;;;;;;;;;;;28.60;88.30;;;;;;5130810;27;19912;-42
2023/07/11 13:51:46;;;;;;;;;;;28.60;87.70;;;;;;5144062;27;19911;-42
2023/07/11 13:54:13;;;;;;;;;;;28.50;86.60;;;;;;5143233;27;19918;-42
2023/07/11 13:56:38;;;;;;;;;;;28.50;87.80;;;;;;5148890;27;20374;-42
2023/07/11 13:59:04;;;;;;;;;;;28.50;90.30;;;;;;5153544;27;19914;-42
2023/07/11 14:01:32;;;;;;;;;;;28.50;89.30;;;;;;5137569;27;19919;-42
2023/07/11 14:03:57;;;;;;;;;;;28.50;89.40;;;;;;5127565;27;20321;-43
2023/07/11 14:06:23;;;;;;;;;;;28.50;91.10;;;;;;5135326;27;19907;-42
2023/07/11 14:08:48;;;;;;;;;;;28.50;90.70;;;;;;5117766;27;20018;-42
2023/07/11 14:11:27;;;;;;;;;;;28.90;90.90;;;;;;5116489;28;19943;-42
2023/07/11 14:13:53;;;;;;;;;;;29.00;91.20;;;;;;5116467;28;19914;-42
2023/07/11 14:16:19;;;;;;;;;;;28.90;90.00;;;;;;5115865;28;19908;-42
2023/07/11 14:18:44;;;;;;;;;;;28.90;91.10;;;;;;5133778;27;19973;-42